createdAt,value
2018-07-10T00:02:29.376Z,1.77
2018-07-10T00:05:11.070Z,2.20
2018-07-10T00:07:52.231Z,2.63
2018-07-10T00:10:31.258Z,1.90
2018-07-10T00:12:59.474Z,2.13
2018-07-10T00:15:27.600Z,1.77
2018-07-10T00:17:55.703Z,1.73
2018-07-10T00:20:23.674Z,2.10
2018-07-10T00:22:51.850Z,2.10
2018-07-10T00:25:19.967Z,2.00
2018-07-10T00:27:48.054Z,2.17
2018-07-10T00:30:16.183Z,2.07
2018-07-10T00:32:44.340Z,2.13
2018-07-10T00:35:12.516Z,2.20
2018-07-10T00:37:45.555Z,1.93
2018-07-10T00:40:13.623Z,2.10
2018-07-10T00:42:41.696Z,2.20
2018-07-10T00:45:09.767Z,2.07
2018-07-10T00:47:37.850Z,2.20
2018-07-10T00:50:05.964Z,2.10
2018-07-10T00:52:34.661Z,2.40
2018-07-10T00:55:03.142Z,2.20
2018-07-10T00:57:32.115Z,2.27
2018-07-10T01:00:01.003Z,2.47
2018-07-10T01:02:29.233Z,2.13
2018-07-10T01:04:57.368Z,2.30
2018-07-10T01:07:25.609Z,2.40
2018-07-10T01:09:53.796Z,1.57
2018-07-10T01:12:21.977Z,2.03
2018-07-10T01:14:50.121Z,2.10
2018-07-10T01:17:18.745Z,1.83
2018-07-10T01:19:46.874Z,2.30
2018-07-10T01:22:15.056Z,2.43
2018-07-10T01:24:43.151Z,2.07
2018-07-10T01:27:11.266Z,1.80
2018-07-10T01:29:44.928Z,2.03
2018-07-10T01:32:13.068Z,2.00
2018-07-10T01:34:41.179Z,2.67
2018-07-10T01:37:09.360Z,1.80
2018-07-10T01:39:37.516Z,1.97
2018-07-10T01:42:05.741Z,1.87
2018-07-10T01:44:33.954Z,2.20
2018-07-10T01:47:02.153Z,2.03
2018-07-10T01:49:30.311Z,1.90
2018-07-10T01:51:58.452Z,2.03
2018-07-10T01:54:26.617Z,2.13
2018-07-10T01:56:54.471Z,2.43
2018-07-10T01:59:22.748Z,2.17
2018-07-10T02:01:50.885Z,1.77
2018-07-10T02:04:19.168Z,1.93
2018-07-10T02:06:47.427Z,1.90
2018-07-10T02:09:15.601Z,1.73
2018-07-10T02:11:43.724Z,1.83
2018-07-10T02:14:11.874Z,1.97
2018-07-10T02:16:40.053Z,1.70
2018-07-10T02:19:08.254Z,1.97
2018-07-10T02:21:36.446Z,2.10
2018-07-10T02:24:04.563Z,1.90
2018-07-10T02:26:32.774Z,2.10
2018-07-10T02:29:01.003Z,2.20
2018-07-10T02:31:29.284Z,1.90
2018-07-10T02:33:57.494Z,2.10
2018-07-10T02:36:25.755Z,2.10
2018-07-10T02:38:59.535Z,1.90
2018-07-10T02:41:27.727Z,2.20
2018-07-10T02:43:58.823Z,2.90
2018-07-10T02:46:27.927Z,2.40
2018-07-10T02:48:57.882Z,1.90
2018-07-10T02:51:25.974Z,2.00
2018-07-10T02:53:54.179Z,2.17
2018-07-10T02:56:22.857Z,2.03
2018-07-10T02:58:51.373Z,2.50
2018-07-10T03:01:19.655Z,2.17
2018-07-10T03:03:48.813Z,2.73
2018-07-10T03:06:16.991Z,3.30
2018-07-10T03:08:45.326Z,2.67
2018-07-10T03:11:13.450Z,2.43
2018-07-10T03:13:42.099Z,2.37
2018-07-10T03:16:10.521Z,2.03
2018-07-10T03:18:38.662Z,2.50
2018-07-10T03:21:06.743Z,2.70
2018-07-10T03:23:34.819Z,3.13
2018-07-10T03:26:02.935Z,3.00
2018-07-10T03:28:31.044Z,2.57
2018-07-10T03:30:59.187Z,2.13
2018-07-10T03:33:27.321Z,2.37
2018-07-10T03:35:55.530Z,2.10
2018-07-10T03:38:24.058Z,2.00
2018-07-10T03:40:52.254Z,2.40
2018-07-10T03:43:20.407Z,2.27
2018-07-10T03:45:48.836Z,2.17
2018-07-10T03:48:17.042Z,2.10
2018-07-10T03:50:45.148Z,2.70
2018-07-10T03:53:13.273Z,2.57
2018-07-10T03:55:41.432Z,2.60
2018-07-10T03:58:09.779Z,2.10
2018-07-10T04:00:37.955Z,2.60
2018-07-10T04:03:06.126Z,2.07
2018-07-10T04:05:34.322Z,2.07
2018-07-10T04:08:04.549Z,2.53
2018-07-10T04:10:35.151Z,2.50
2018-07-10T04:13:14.180Z,2.30
2018-07-10T04:15:43.623Z,2.50
2018-07-10T04:18:14.483Z,2.67
2018-07-10T04:21:45.816Z,2.20
2018-07-10T04:24:17.744Z,2.40
2018-07-10T04:26:55.518Z,2.63
2018-07-10T04:29:28.570Z,2.83
2018-07-10T04:31:59.399Z,2.70
2018-07-10T04:34:29.302Z,2.43
2018-07-10T04:37:01.940Z,2.50
2018-07-10T04:39:30.491Z,2.50
2018-07-10T04:42:04.778Z,2.57
2018-07-10T04:44:33.575Z,2.03
2018-07-10T04:47:09.004Z,2.30
2018-07-10T04:49:42.826Z,2.77
2018-07-10T04:52:17.338Z,2.70
2018-07-10T04:54:59.117Z,3.03
2018-07-10T04:57:32.409Z,2.40
2018-07-10T05:00:03.894Z,2.30
2018-07-10T05:02:32.462Z,3.30
2018-07-10T05:05:00.641Z,2.50
2018-07-10T05:07:29.240Z,2.70
2018-07-10T05:09:58.498Z,2.40
2018-07-10T05:12:26.612Z,2.47
2018-07-10T05:14:56.042Z,2.53
2018-07-10T05:17:24.163Z,2.30
2018-07-10T05:19:52.315Z,2.27
2018-07-10T05:22:20.923Z,2.73
2018-07-10T05:24:49.063Z,2.30
2018-07-10T05:27:17.155Z,2.27
2018-07-10T05:29:45.136Z,2.60
2018-07-10T05:32:13.855Z,2.10
2018-07-10T05:34:41.976Z,2.23
2018-07-10T05:37:12.256Z,2.27
2018-07-10T05:39:43.354Z,2.53
2018-07-10T05:42:11.785Z,2.83
2018-07-10T05:44:39.929Z,2.20
2018-07-10T05:47:08.377Z,2.33
2018-07-10T05:49:38.768Z,2.43
2018-07-10T05:52:06.931Z,2.90
2018-07-10T05:54:37.543Z,2.53
2018-07-10T05:57:06.408Z,3.00
2018-07-10T05:59:34.601Z,2.50
2018-07-10T06:02:02.547Z,2.77
2018-07-10T06:04:30.706Z,2.70
2018-07-10T06:06:59.606Z,2.70
2018-07-10T06:09:27.776Z,2.50
2018-07-10T06:11:55.960Z,2.20
2018-07-10T06:14:24.156Z,2.20
2018-07-10T06:16:52.893Z,2.50
2018-07-10T06:19:21.140Z,2.43
2018-07-10T06:21:49.902Z,2.20
2018-07-10T06:24:26.992Z,2.33
2018-07-10T06:27:02.101Z,2.17
2018-07-10T06:29:40.351Z,3.17
2018-07-10T06:32:08.611Z,2.67
2018-07-10T06:34:38.177Z,2.40
2018-07-10T06:37:08.314Z,2.47
2018-07-10T06:39:36.465Z,2.50
2018-07-10T06:42:06.440Z,2.53
2018-07-10T06:44:35.505Z,2.67
2018-07-10T06:47:09.277Z,2.70
2018-07-10T06:49:37.751Z,2.70
2018-07-10T06:52:11.361Z,2.60
2018-07-10T06:54:51.613Z,2.27
2018-07-10T06:57:31.831Z,2.70
2018-07-10T07:00:02.570Z,2.37
2018-07-10T07:02:31.089Z,2.57
2018-07-10T07:05:00.179Z,2.53
2018-07-10T07:07:28.649Z,2.73
2018-07-10T07:09:56.855Z,2.67
2018-07-10T07:12:25.008Z,2.63
2018-07-10T07:14:53.295Z,2.20
2018-07-10T07:17:21.794Z,2.87
2018-07-10T07:19:49.995Z,2.93
2018-07-10T07:22:18.141Z,2.50
2018-07-10T07:24:46.250Z,2.40
2018-07-10T07:27:14.353Z,2.30
2018-07-10T07:29:42.595Z,3.00
2018-07-10T07:32:10.833Z,2.47
2018-07-10T07:34:39.051Z,2.20
2018-07-10T07:37:07.824Z,2.90
2018-07-10T07:39:36.076Z,4.23
2018-07-10T07:42:04.359Z,2.40
2018-07-10T07:44:32.470Z,2.47
2018-07-10T07:47:00.567Z,2.33
2018-07-10T07:49:29.563Z,2.27
2018-07-10T07:51:57.932Z,2.97
2018-07-10T07:54:26.012Z,2.30
2018-07-10T07:56:54.146Z,2.10
2018-07-10T07:59:22.311Z,2.10
2018-07-10T08:01:50.653Z,1.90
2018-07-10T08:04:19.063Z,2.10
2018-07-10T08:06:47.407Z,1.93
2018-07-10T08:09:17.014Z,2.50
2018-07-10T08:11:45.512Z,2.53
2018-07-10T08:14:15.226Z,2.93
2018-07-10T08:16:43.502Z,3.37
2018-07-10T08:19:11.791Z,2.50
2018-07-10T08:21:39.871Z,3.10
2018-07-10T08:24:08.073Z,3.20
2018-07-10T08:26:36.172Z,2.70
2018-07-10T08:29:04.514Z,2.57
2018-07-10T08:31:32.664Z,2.63
2018-07-10T08:34:00.861Z,2.70
2018-07-10T08:36:28.883Z,2.67
2018-07-10T08:38:57.010Z,2.60
2018-07-10T08:41:25.893Z,2.33
2018-07-10T08:43:54.436Z,2.50
2018-07-10T08:46:29.815Z,2.60
2018-07-10T08:48:58.301Z,3.13
2018-07-10T08:51:26.485Z,2.57
2018-07-10T08:53:55.168Z,3.30
2018-07-10T08:56:23.322Z,2.33
2018-07-10T08:58:51.507Z,7.33
2018-07-10T09:01:19.778Z,8.17
2018-07-10T09:03:48.118Z,3.10
2018-07-10T09:06:16.495Z,2.60
2018-07-10T09:08:44.596Z,3.00
2018-07-10T09:11:12.689Z,3.17
2018-07-10T09:13:40.935Z,2.83
2018-07-10T09:16:09.039Z,2.27
2018-07-10T09:18:37.134Z,2.87
2018-07-10T09:21:05.305Z,2.43
2018-07-10T09:23:33.764Z,2.70
2018-07-10T09:26:01.928Z,2.30
2018-07-10T09:28:33.474Z,2.37
2018-07-10T09:31:02.119Z,2.20
2018-07-10T09:33:30.253Z,2.93
2018-07-10T09:35:58.377Z,2.83
2018-07-10T09:38:26.479Z,3.50
2018-07-10T09:40:55.464Z,3.13
2018-07-10T09:43:25.322Z,3.00
2018-07-10T09:45:53.507Z,2.70
2018-07-10T09:48:21.625Z,2.57
2018-07-10T09:50:49.714Z,2.90
2018-07-10T09:53:18.004Z,2.57
2018-07-10T09:55:46.152Z,2.57
2018-07-10T09:58:14.321Z,2.57
2018-07-10T10:01:03.191Z,2.40
2018-07-10T10:03:32.162Z,3.00
2018-07-10T10:06:00.358Z,2.93
2018-07-10T10:08:28.596Z,2.70
2018-07-10T10:10:56.691Z,3.30
2018-07-10T10:13:24.775Z,2.90
2018-07-10T10:15:52.878Z,2.87
2018-07-10T10:18:20.997Z,2.97
2018-07-10T10:20:49.472Z,2.77
2018-07-10T10:23:17.629Z,2.80
2018-07-10T10:25:49.294Z,2.60
2018-07-10T10:28:17.674Z,2.67
2018-07-10T10:30:45.980Z,2.73
2018-07-10T10:33:14.168Z,2.77
2018-07-10T10:35:42.348Z,2.60
2018-07-10T10:38:10.413Z,2.73
2018-07-10T10:40:39.795Z,3.00
2018-07-10T10:43:10.001Z,2.80
2018-07-10T10:45:40.104Z,2.83
2018-07-10T10:48:08.428Z,3.60
2018-07-10T10:50:37.439Z,3.00
2018-07-10T10:53:06.050Z,4.17
2018-07-10T10:55:35.038Z,2.90
2018-07-10T10:58:03.306Z,3.00
2018-07-10T11:00:31.702Z,3.80
2018-07-10T11:02:59.800Z,2.53
2018-07-10T11:05:28.620Z,3.00
2018-07-10T11:07:57.870Z,2.97
2018-07-10T11:10:25.999Z,3.37
2018-07-10T11:12:55.202Z,2.93
2018-07-10T11:15:24.650Z,2.70
2018-07-10T11:18:03.057Z,3.23
2018-07-10T11:20:41.919Z,2.63
2018-07-10T11:23:10.549Z,2.83
2018-07-10T11:25:39.956Z,2.77
2018-07-10T11:28:10.123Z,2.60
2018-07-10T11:30:38.689Z,2.53
2018-07-10T11:33:07.904Z,3.17
2018-07-10T11:35:36.578Z,2.67
2018-07-10T11:38:07.416Z,3.10
2018-07-10T11:40:36.386Z,2.37
2018-07-10T11:43:05.867Z,2.90
2018-07-10T11:45:34.022Z,2.70
2018-07-10T11:48:02.183Z,2.53
2018-07-10T11:50:30.355Z,2.73
2018-07-10T11:52:58.467Z,2.93
2018-07-10T11:55:26.544Z,2.90
2018-07-10T11:57:54.615Z,2.77
2018-07-10T12:00:22.863Z,2.90
2018-07-10T12:02:51.136Z,2.83
2018-07-10T12:05:20.363Z,2.40
2018-07-10T12:07:52.906Z,2.90
2018-07-10T12:10:23.049Z,2.80
2018-07-10T12:12:52.122Z,2.17
2018-07-10T12:15:20.766Z,2.30
2018-07-10T12:17:50.720Z,2.80
2018-07-10T12:20:22.230Z,2.63
2018-07-10T12:22:50.397Z,3.10
2018-07-10T12:25:25.227Z,2.70
2018-07-10T12:27:53.427Z,2.13
2018-07-10T12:30:21.571Z,2.57
2018-07-10T12:32:49.769Z,2.80
2018-07-10T12:35:17.965Z,2.80
2018-07-10T12:37:46.108Z,2.70
2018-07-10T12:40:14.252Z,2.83
2018-07-10T12:42:42.343Z,2.20
2018-07-10T12:45:11.056Z,2.70
2018-07-10T12:47:39.190Z,2.53
2018-07-10T12:50:07.471Z,2.70
2018-07-10T12:52:35.429Z,2.93
2018-07-10T12:55:03.622Z,2.80
2018-07-10T12:57:47.824Z,2.77
2018-07-10T13:00:15.976Z,2.40
2018-07-10T13:02:48.532Z,14.63
2018-07-10T13:05:18.170Z,3.13
2018-07-10T13:07:46.392Z,2.50
2018-07-10T13:10:14.793Z,2.60
2018-07-10T13:12:42.879Z,3.33
2018-07-10T13:15:10.978Z,3.60
2018-07-10T13:17:40.740Z,2.90
2018-07-10T13:20:08.963Z,3.13
2018-07-10T13:22:37.118Z,3.10
2018-07-10T13:25:05.495Z,2.73
2018-07-10T13:27:33.733Z,2.70
2018-07-10T13:30:01.835Z,2.80
2018-07-10T13:32:30.251Z,3.53
2018-07-10T13:34:58.352Z,2.70
2018-07-10T13:37:27.992Z,3.00
2018-07-10T13:39:59.797Z,2.70
2018-07-10T13:42:52.315Z,3.20
2018-07-10T13:45:20.921Z,2.90
2018-07-10T13:47:49.217Z,3.27
2018-07-10T13:50:22.126Z,2.97
2018-07-10T13:52:50.806Z,3.20
2018-07-10T13:55:18.957Z,2.87
2018-07-10T13:58:00.056Z,3.10
2018-07-10T14:00:28.231Z,3.03
2018-07-10T14:02:56.344Z,3.40
2018-07-10T14:05:25.335Z,3.00
2018-07-10T14:07:53.754Z,3.10
2018-07-10T14:10:22.554Z,3.80
2018-07-10T14:12:50.697Z,3.43
2018-07-10T14:15:18.928Z,3.20
2018-07-10T14:17:47.525Z,3.27
2018-07-10T14:20:16.515Z,3.67
2018-07-10T14:22:44.725Z,3.00
2018-07-10T14:25:12.883Z,2.90
2018-07-10T14:27:40.999Z,3.00
2018-07-10T14:30:09.093Z,3.00
2018-07-10T14:32:37.195Z,3.00
2018-07-10T14:35:05.321Z,3.10
2018-07-10T14:37:33.440Z,3.00
2018-07-10T14:40:01.942Z,3.37
2018-07-10T14:42:30.227Z,2.70
2018-07-10T14:45:00.491Z,3.47
2018-07-10T14:47:28.675Z,2.80
2018-07-10T14:49:56.812Z,3.00
2018-07-10T14:52:24.948Z,3.13
2018-07-10T14:54:53.097Z,3.10
2018-07-10T14:57:21.289Z,2.80
2018-07-10T14:59:49.440Z,2.97
2018-07-10T15:02:17.580Z,2.87
2018-07-10T15:04:45.659Z,3.00
2018-07-10T15:07:13.849Z,3.20
2018-07-10T15:09:41.951Z,3.03
2018-07-10T15:12:10.052Z,3.17
2018-07-10T15:14:38.280Z,3.80
2018-07-10T15:17:11.892Z,4.33
2018-07-10T15:19:40.045Z,4.17
2018-07-10T15:22:08.377Z,4.73
2018-07-10T15:24:36.560Z,6.83
2018-07-10T15:27:04.947Z,7.90
2018-07-10T15:29:33.124Z,7.40
2018-07-10T15:32:01.285Z,6.03
2018-07-10T15:34:29.424Z,6.73
2018-07-10T15:36:57.499Z,7.37
2018-07-10T15:39:25.638Z,7.37
2018-07-10T15:41:54.103Z,6.60
2018-07-10T15:44:22.215Z,5.23
2018-07-10T15:46:50.581Z,5.83
2018-07-10T15:49:19.014Z,5.60
2018-07-10T15:51:47.233Z,6.00
2018-07-10T15:54:15.413Z,6.70
2018-07-10T15:56:43.552Z,6.20
2018-07-10T15:59:11.867Z,5.50
2018-07-10T16:01:39.980Z,4.87
2018-07-10T16:04:08.421Z,4.23
2018-07-10T16:06:37.376Z,3.80
2018-07-10T16:09:08.497Z,3.63
2018-07-10T16:11:37.063Z,3.90
2018-07-10T16:14:05.327Z,2.87
2018-07-10T16:16:34.116Z,3.30
2018-07-10T16:19:06.094Z,3.10
2018-07-10T16:21:51.502Z,3.30
2018-07-10T16:24:20.683Z,3.27
2018-07-10T16:26:48.792Z,2.90
2018-07-10T16:29:18.912Z,2.83
2018-07-10T16:31:48.170Z,3.10
2018-07-10T16:34:16.304Z,3.10
2018-07-10T16:36:44.420Z,2.70
2018-07-10T16:39:12.539Z,2.80
2018-07-10T16:41:46.188Z,3.10
2018-07-10T16:44:14.406Z,2.80
2018-07-10T16:46:47.701Z,2.83
2018-07-10T16:49:26.876Z,2.83
2018-07-10T16:52:11.916Z,2.67
2018-07-10T16:54:40.031Z,3.20
2018-07-10T16:57:08.469Z,3.20
2018-07-10T16:59:36.735Z,2.73
2018-07-10T17:02:04.918Z,3.10
2018-07-10T17:04:33.187Z,2.67
2018-07-10T17:07:01.337Z,2.67
2018-07-10T17:09:29.584Z,2.70
2018-07-10T17:11:57.892Z,2.90
2018-07-10T17:14:26.025Z,5.00
2018-07-10T17:16:54.120Z,3.10
2018-07-10T17:19:23.029Z,2.77
2018-07-10T17:21:51.211Z,2.80
2018-07-10T17:24:19.393Z,2.80
2018-07-10T17:26:47.554Z,2.80
2018-07-10T17:29:15.804Z,2.83
2018-07-10T17:31:43.935Z,3.03
2018-07-10T17:34:12.304Z,2.87
2018-07-10T17:36:40.553Z,2.80
2018-07-10T17:39:08.686Z,3.23
2018-07-10T17:41:38.025Z,2.70
2018-07-10T17:44:08.921Z,3.00
2018-07-10T17:46:37.441Z,2.90
2018-07-10T17:49:05.577Z,2.90
2018-07-10T17:51:33.898Z,3.00
2018-07-10T17:54:02.384Z,2.73
2018-07-10T17:56:30.759Z,4.00
2018-07-10T17:58:59.749Z,4.30
2018-07-10T18:01:27.951Z,5.17
2018-07-10T18:03:56.132Z,3.43
2018-07-10T18:06:24.223Z,3.30
2018-07-10T18:08:52.370Z,11.00
2018-07-10T18:11:20.746Z,3.10
2018-07-10T18:13:48.931Z,3.27
2018-07-10T18:16:17.159Z,3.23
2018-07-10T18:18:45.236Z,3.20
2018-07-10T18:21:13.421Z,4.37
2018-07-10T18:23:41.939Z,4.23
2018-07-10T18:26:10.055Z,5.00
2018-07-10T18:28:38.304Z,3.77
2018-07-10T18:31:06.418Z,3.80
2018-07-10T18:33:34.542Z,3.70
2018-07-10T18:36:02.648Z,3.70
2018-07-10T18:38:30.802Z,3.33
2018-07-10T18:40:58.914Z,4.07
2018-07-10T18:43:27.039Z,3.83
2018-07-10T18:45:55.467Z,3.63
2018-07-10T18:48:25.386Z,3.63
2018-07-10T18:50:53.437Z,3.73
2018-07-10T18:53:21.574Z,3.70
2018-07-10T18:55:50.187Z,4.30
2018-07-10T18:58:37.581Z,3.80
2018-07-10T19:01:12.239Z,4.20
2018-07-10T19:03:42.557Z,3.83
2018-07-10T19:06:12.659Z,4.10
2018-07-10T19:08:42.176Z,4.10
2018-07-10T19:11:12.753Z,3.93
2018-07-10T19:13:40.931Z,3.80
2018-07-10T19:16:09.120Z,3.90
2018-07-10T19:18:37.314Z,3.90
2018-07-10T19:21:15.666Z,3.37
2018-07-10T19:23:46.168Z,4.00
2018-07-10T19:26:14.999Z,3.63
2018-07-10T19:28:43.764Z,4.20
2018-07-10T19:31:15.024Z,3.90
2018-07-10T19:33:44.863Z,3.80
2018-07-10T19:36:13.264Z,3.63
2018-07-10T19:38:41.412Z,3.30
2018-07-10T19:41:09.823Z,3.70
2018-07-10T19:43:37.801Z,3.10
2018-07-10T19:46:05.881Z,3.30
2018-07-10T19:48:34.826Z,3.63
2018-07-10T19:51:03.008Z,3.60
2018-07-10T19:53:31.261Z,4.20
2018-07-10T19:56:00.074Z,3.77
2018-07-10T19:58:35.443Z,4.10
2018-07-10T20:01:12.060Z,4.07
2018-07-10T20:03:46.423Z,4.30
2018-07-10T20:06:22.753Z,4.97
2018-07-10T20:08:50.855Z,5.10
2018-07-10T20:11:23.853Z,4.67
2018-07-10T20:13:52.142Z,4.40
2018-07-10T20:16:29.951Z,3.80
2018-07-10T20:19:08.552Z,4.10
2018-07-10T20:21:49.426Z,4.50
2018-07-10T20:24:20.064Z,4.80
2018-07-10T20:26:53.417Z,4.90
2018-07-10T20:31:37.846Z,3.97
2018-07-10T20:34:21.068Z,3.53
2018-07-10T20:36:53.357Z,2.90
2018-07-10T20:39:26.630Z,3.70
2018-07-10T20:41:54.765Z,3.57
2018-07-10T20:44:22.957Z,3.90
2018-07-10T20:46:58.981Z,4.23
2018-07-10T20:49:36.246Z,3.83
2018-07-10T20:52:06.631Z,4.40
2018-07-10T20:54:41.500Z,4.30
2018-07-10T20:57:26.777Z,4.83
2018-07-10T21:00:02.549Z,3.80
2018-07-10T21:02:37.741Z,3.57
2018-07-10T21:05:08.269Z,4.60
2018-07-10T21:07:45.828Z,4.20
2018-07-10T21:10:22.533Z,3.70
2018-07-10T21:13:06.852Z,4.10
2018-07-10T21:15:40.627Z,4.73
2018-07-10T21:18:14.188Z,4.70
2018-07-10T21:20:51.650Z,4.97
2018-07-10T21:23:43.103Z,4.93
2018-07-10T21:26:22.463Z,5.70
2018-07-10T21:28:53.443Z,4.97
2018-07-10T21:31:30.627Z,4.47
2018-07-10T21:34:06.264Z,4.57
2018-07-10T21:36:45.460Z,4.50
2018-07-10T21:39:16.454Z,4.10
2018-07-10T21:41:55.099Z,5.00
2018-07-10T21:44:31.230Z,5.60
2018-07-10T21:47:12.699Z,4.43
2018-07-10T21:49:47.445Z,4.90
2018-07-10T21:52:15.551Z,4.87
2018-07-10T21:54:43.775Z,5.63
2018-07-10T21:57:14.282Z,4.97
2018-07-10T21:59:49.358Z,5.53
2018-07-10T22:02:17.491Z,5.70
2018-07-10T22:04:46.485Z,5.70
2018-07-10T22:07:15.752Z,5.70
2018-07-10T22:09:44.404Z,6.37
2018-07-10T22:12:16.143Z,6.00
2018-07-10T22:14:44.442Z,6.40
2018-07-10T22:17:21.609Z,5.93
2018-07-10T22:19:50.449Z,6.97
2018-07-10T22:22:19.436Z,6.27
2018-07-10T22:24:48.602Z,6.43
2018-07-10T22:27:16.746Z,7.33
2018-07-10T22:29:50.973Z,7.30
2018-07-10T22:32:24.574Z,6.53
2018-07-10T22:34:52.745Z,7.10
2018-07-10T22:37:20.910Z,7.60
2018-07-10T22:39:49.005Z,7.90
2018-07-10T22:42:17.254Z,6.73
2018-07-10T22:44:47.139Z,8.50
2018-07-10T22:47:16.631Z,6.90
2018-07-10T22:49:45.084Z,5.60
2018-07-10T22:52:13.400Z,5.23
2018-07-10T22:54:41.568Z,6.30
2018-07-10T22:57:10.295Z,7.00
2018-07-10T22:59:38.480Z,6.70
2018-07-10T23:02:07.640Z,7.27
2018-07-10T23:04:35.752Z,6.40
2018-07-10T23:07:03.971Z,5.70
2018-07-10T23:09:32.655Z,6.37
2018-07-10T23:12:00.742Z,6.27
2018-07-10T23:14:29.041Z,4.87
2018-07-10T23:16:57.343Z,4.67
2018-07-10T23:19:25.463Z,5.17
2018-07-10T23:21:53.702Z,6.87
2018-07-10T23:24:21.821Z,5.70
2018-07-10T23:26:49.929Z,6.27
2018-07-10T23:29:21.028Z,5.87
2018-07-10T23:31:49.197Z,6.03
2018-07-10T23:34:19.569Z,6.20
2018-07-10T23:36:48.449Z,6.23
2018-07-10T23:39:16.314Z,6.50
2018-07-10T23:41:50.034Z,6.60
2018-07-10T23:44:18.171Z,6.70
2018-07-10T23:46:58.547Z,5.83
2018-07-10T23:49:27.242Z,6.30
2018-07-10T23:52:07.144Z,6.13
2018-07-10T23:54:35.256Z,7.13
2018-07-10T23:57:03.358Z,6.10
2018-07-10T23:59:31.476Z,6.83
